Terminal Aerodrome Forecast
Issued by NWS

Home | Current Version | Previous Version | Text Only | Print | Product List | Glossary On
Versions: 1 2 3 4 5 6 7 8 9 10 11 12 13 14 15 16
553
FTUS46 KPDT 260533
TAFPSC
TAF
KPSC 260533Z 2606/2706 24009KT P6SM BKN080 OVC120
     FM261100 20005KT P6SM VCSH BKN060 OVC080
     FM261300 21005KT 4SM -SHSN BR BKN040 OVC050
     FM261900 25006KT 6SM -SHRASN BR OVC040
     FM270300 VRB04KT P6SM VCSH OVC040=

USA.gov is the U.S. government's official web portal to all federal, state and local government web resources and services.